Time;durP1;ratioP1;P1;durP2;ratioP2;P2;SDS_P1;SDS_P2;PMS_P1;PMS_P2;Temp;Humidity;BMP_temperature;BMP_pressure;BME280_temperature;BME280_humidity;BME280_pressure;Samples;Min_cycle;Max_cycle;Signal;HPM_P1;HPM_P2
2023/12/13 00:01:25;;;;;;;19.90;7.85;;;;;;;10.00;63.42;100115.84;5010930;28;20036;-40
2023/12/13 00:03:51;;;;;;;17.80;7.53;;;;;;;9.99;63.43;100106.28;5007855;28;20033;-40
2023/12/13 00:06:17;;;;;;;16.52;7.65;;;;;;;10.02;63.25;100099.06;5009847;28;20034;-40
2023/12/13 00:08:42;;;;;;;15.05;7.07;;;;;;;10.00;63.41;100100.94;5001461;28;20032;-41
2023/12/13 00:11:08;;;;;;;16.88;7.07;;;;;;;9.97;63.51;100098.50;5004599;28;20758;-39
2023/12/13 00:13:34;;;;;;;15.43;7.10;;;;;;;10.03;63.35;100086.75;5012012;28;20088;-39
2023/12/13 00:16:02;;;;;;;17.85;7.72;;;;;;;10.03;63.47;100079.72;5006375;28;20030;-40
2023/12/13 00:18:28;;;;;;;17.38;7.65;;;;;;;9.99;63.47;100087.88;5004414;28;20068;-40
2023/12/13 00:20:54;;;;;;;17.95;6.82;;;;;;;10.04;63.12;100085.81;5000998;28;25733;-40
2023/12/13 00:23:19;;;;;;;17.30;7.82;;;;;;;10.04;62.96;100085.81;5008467;28;20026;-41
2023/12/13 00:25:45;;;;;;;19.33;7.53;;;;;;;10.06;63.01;100081.28;5005789;28;20034;-42
2023/12/13 00:28:10;;;;;;;17.88;7.90;;;;;;;10.09;62.98;100082.88;5000198;28;20049;-41
2023/12/13 00:30:36;;;;;;;15.93;6.82;;;;;;;10.09;62.90;100077.59;5004817;28;20058;-40
2023/12/13 00:33:01;;;;;;;18.30;7.97;;;;;;;10.03;63.06;100076.22;5001074;28;20038;-39
2023/12/13 00:35:27;;;;;;;19.17;8.13;;;;;;;10.02;63.12;100066.66;4999997;28;20145;-39
2023/12/13 00:37:54;;;;;;;20.90;8.80;;;;;;;10.04;62.88;100070.91;5003796;28;20033;-41
2023/12/13 00:40:22;;;;;;;18.30;7.80;;;;;;;10.05;63.20;100071.72;5004527;28;20025;-39
2023/12/13 00:42:48;;;;;;;20.90;8.05;;;;;;;10.03;63.14;100070.97;5003383;28;20121;-39
2023/12/13 00:45:14;;;;;;;10.73;5.50;;;;;;;10.04;63.13;100068.28;4997999;28;20033;-39
2023/12/13 00:47:40;;;;;;;22.83;8.93;;;;;;;10.01;62.96;100063.22;5002721;28;20116;-38
2023/12/13 00:50:06;;;;;;;25.42;10.00;;;;;;;10.00;63.31;100061.53;4999878;28;20048;-42
2023/12/13 00:52:32;;;;;;;23.17;10.13;;;;;;;9.98;63.13;100055.53;5017047;28;20038;-39
2023/12/13 00:55:00;;;;;;;25.85;9.57;;;;;;;9.97;63.28;100058.25;5001848;28;20034;-39
2023/12/13 00:57:26;;;;;;;19.25;8.63;;;;;;;9.87;63.50;100060.66;5003120;28;20030;-39
2023/12/13 00:59:52;;;;;;;20.30;8.98;;;;;;;9.86;63.68;100056.34;5001045;28;20034;-40
2023/12/13 01:02:17;;;;;;;21.80;9.18;;;;;;;9.87;63.41;100052.75;4992446;28;20443;-41
2023/12/13 01:04:44;;;;;;;22.60;8.63;;;;;;;9.87;63.53;100052.75;4998655;28;20079;-41
2023/12/13 01:07:10;;;;;;;22.58;8.65;;;;;;;9.89;63.28;100058.75;4995900;28;20041;-41
2023/12/13 01:09:36;;;;;;;23.95;8.95;;;;;;;9.91;63.49;100064.75;5005775;28;20037;-39
2023/12/13 01:12:02;;;;;;;20.80;8.07;;;;;;;9.74;64.03;100071.09;4987252;28;20421;-41
2023/12/13 01:14:27;;;;;;;19.85;9.07;;;;;;;9.54;64.44;100070.59;4991376;28;20417;-41
2023/12/13 01:16:53;;;;;;;20.88;8.75;;;;;;;9.45;64.58;100071.19;4987941;28;20032;-38
2023/12/13 01:19:18;;;;;;;23.85;10.43;;;;;;;9.45;64.81;100071.19;5001804;28;20033;-39
2023/12/13 01:21:44;;;;;;;22.75;9.27;;;;;;;9.44;65.04;100075.63;5011993;28;20046;-41
2023/12/13 01:24:09;;;;;;;17.73;7.93;;;;;;;9.68;64.55;100074.16;5000406;28;20022;-41
2023/12/13 01:26:34;;;;;;;28.83;11.10;;;;;;;9.55;64.91;100077.53;4995529;28;20180;-41
2023/12/13 01:29:00;;;;;;;23.60;9.05;;;;;;;9.72;64.57;100071.22;4994197;28;20029;-41
2023/12/13 01:31:25;;;;;;;23.40;9.27;;;;;;;9.74;64.60;100066.72;5004719;28;20038;-42
2023/12/13 01:33:51;;;;;;;23.58;9.50;;;;;;;9.54;64.57;100064.53;4983250;28;20065;-39
2023/12/13 01:36:16;;;;;;;20.95;9.45;;;;;;;9.68;64.44;100053.97;4989783;28;20044;-41
2023/12/13 01:38:42;;;;;;;23.88;8.68;;;;;;;9.61;64.48;100055.28;4990740;28;20042;-38
2023/12/13 01:41:07;;;;;;;21.20;8.75;;;;;;;9.74;64.60;100040.44;4998922;28;20030;-38
2023/12/13 01:43:33;;;;;;;21.10;9.20;;;;;;;9.84;64.27;100039.81;4999214;28;20488;-41
2023/12/13 01:45:59;;;;;;;26.30;9.55;;;;;;;9.81;64.19;100034.75;4996227;28;20040;-39
2023/12/13 01:48:26;;;;;;;26.55;11.80;;;;;;;9.77;64.39;100034.13;4998430;28;20037;-39
2023/12/13 01:50:54;;;;;;;23.75;10.77;;;;;;;9.54;64.55;100035.63;4996388;28;20030;-42
2023/12/13 01:53:20;;;;;;;24.60;9.32;;;;;;;9.56;64.67;100025.88;4992770;28;20120;-40
2023/12/13 01:55:46;;;;;;;26.17;9.48;;;;;;;9.65;64.65;100027.88;5004903;28;20080;-39
2023/12/13 01:58:13;;;;;;;18.10;9.15;;;;;;;9.74;64.52;100031.69;4998153;28;20034;-39
2023/12/13 02:00:41;;;;;;;25.63;10.60;;;;;;;9.48;64.65;100030.75;5006722;28;20458;-38
2023/12/13 02:03:11;;;;;;;22.23;9.38;;;;;;;9.51;65.01;100025.31;4994454;28;20042;-41
2023/12/13 02:05:38;;;;;;;22.88;9.18;;;;;;;9.48;65.05;100026.38;4998480;28;20038;-40
2023/12/13 02:08:04;;;;;;;28.63;9.95;;;;;;;9.54;65.10;100022.50;4992542;28;20116;-43
2023/12/13 02:10:30;;;;;;;23.08;9.45;;;;;;;9.66;64.83;100021.69;4997402;28;20023;-43
2023/12/13 02:12:56;;;;;;;24.30;8.88;;;;;;;9.68;64.79;100022.44;4993840;28;20033;-42
2023/12/13 02:15:22;;;;;;;21.40;9.55;;;;;;;9.80;64.36;100017.31;4992368;28;20026;-40
2023/12/13 02:17:52;;;;;;;19.77;9.63;;;;;;;9.90;64.49;100023.66;5012054;28;20464;-38
2023/12/13 02:20:18;;;;;;;25.67;10.50;;;;;;;9.93;64.26;100015.56;5008127;28;20034;-39
2023/12/13 02:22:44;;;;;;;24.60;8.70;;;;;;;9.96;63.80;100009.28;5004008;28;20041;-39
2023/12/13 02:25:15;;;;;;;24.05;12.38;;;;;;;10.04;63.61;100007.81;5006143;28;20037;-39
2023/12/13 02:27:41;;;;;;;19.35;8.52;;;;;;;10.05;63.44;99998.13;4996441;28;20032;-42
2023/12/13 02:30:09;;;;;;;24.50;9.63;;;;;;;10.04;63.30;99986.78;5005532;28;20021;-39
2023/12/13 02:32:34;;;;;;;20.77;7.70;;;;;;;10.08;63.15;99992.66;5006796;28;20034;-40
2023/12/13 02:35:00;;;;;;;22.00;9.82;;;;;;;10.04;63.21;99992.03;5010194;28;20030;-39
2023/12/13 02:37:25;;;;;;;20.75;9.35;;;;;;;10.07;63.17;99994.44;5007770;28;20048;-39
2023/12/13 02:39:51;;;;;;;20.88;8.27;;;;;;;10.05;63.21;99991.09;5006261;28;20034;-40
2023/12/13 02:42:17;;;;;;;21.35;9.73;;;;;;;9.94;63.41;99990.97;5005686;28;20451;-40
2023/12/13 02:44:43;;;;;;;26.05;11.25;;;;;;;10.00;63.24;99990.56;5003267;28;20165;-39
2023/12/13 02:47:11;;;;;;;28.25;10.25;;;;;;;10.06;63.28;99984.88;5009261;28;20416;-43
2023/12/13 02:49:36;;;;;;;26.30;9.77;;;;;;;10.04;63.23;99981.53;4997762;28;20049;-40
2023/12/13 02:52:02;;;;;;;23.45;9.40;;;;;;;10.02;63.29;99980.78;4994859;28;20037;-39
2023/12/13 02:54:27;;;;;;;20.83;8.50;;;;;;;10.02;63.38;99970.28;5002354;28;20037;-41
2023/12/13 02:56:53;;;;;;;25.33;10.32;;;;;;;9.97;63.72;99968.91;4999703;28;20036;-38
2023/12/13 02:59:18;;;;;;;21.48;9.73;;;;;;;10.03;63.48;99969.31;4995224;28;20045;-44
2023/12/13 03:01:43;;;;;;;20.92;9.98;;;;;;;10.07;63.55;99969.94;4991283;28;20025;-41
2023/12/13 03:04:09;;;;;;;24.98;10.73;;;;;;;10.09;63.26;99968.06;4996260;28;20037;-39
2023/12/13 03:06:34;;;;;;;21.55;9.48;;;;;;;10.12;63.37;99967.00;4998017;28;20026;-41
2023/12/13 03:09:00;;;;;;;23.98;10.25;;;;;;;10.09;63.16;99962.81;4994368;28;20031;-41
2023/12/13 03:11:25;;;;;;;23.52;10.07;;;;;;;10.15;63.21;99956.28;5003900;28;20063;-39
2023/12/13 03:13:51;;;;;;;27.00;10.70;;;;;;;10.14;63.20;99952.78;4994407;28;20034;-42
2023/12/13 03:16:16;;;;;;;21.40;10.20;;;;;;;10.17;63.06;99949.13;4995126;28;20037;-41
2023/12/13 03:18:41;;;;;;;25.02;9.43;;;;;;;10.16;63.08;99943.03;5004989;28;20037;-38
2023/12/13 03:21:07;;;;;;;24.08;9.90;;;;;;;10.15;63.06;99943.13;4995893;28;20057;-39
2023/12/13 03:23:32;;;;;;;26.50;10.00;;;;;;;10.18;63.14;99945.56;4995768;28;20046;-40
2023/12/13 03:25:58;;;;;;;22.30;10.88;;;;;;;10.13;63.01;99937.16;4997454;28;20156;-42
2023/12/13 03:28:23;;;;;;;18.40;7.75;;;;;;;10.16;62.91;99932.50;4995471;28;20130;-38
2023/12/13 03:30:49;;;;;;;28.10;11.93;;;;;;;10.11;62.81;99933.78;4992046;28;20080;-41
2023/12/13 03:33:14;;;;;;;25.63;11.10;;;;;;;9.91;62.99;99925.47;4994440;28;20092;-40
2023/12/13 03:35:39;;;;;;;25.23;10.38;;;;;;;10.01;63.26;99931.78;4997510;28;20037;-38
2023/12/13 03:38:06;;;;;;;22.73;9.85;;;;;;;10.03;63.35;99929.03;4996573;28;20038;-39
2023/12/13 03:40:32;;;;;;;28.60;11.23;;;;;;;9.97;63.60;99932.94;5000705;28;20489;-40
2023/12/13 03:42:57;;;;;;;24.20;11.27;;;;;;;10.01;63.41;99937.03;5004321;28;20096;-39
2023/12/13 03:45:24;;;;;;;26.65;11.07;;;;;;;10.03;63.25;99932.53;5012331;28;20018;-39
2023/12/13 03:47:49;;;;;;;29.15;11.07;;;;;;;10.10;63.18;99934.72;5004144;28;20127;-39
2023/12/13 03:50:15;;;;;;;22.80;10.57;;;;;;;10.13;63.28;99931.88;5004040;28;20046;-39
2023/12/13 03:52:40;;;;;;;31.08;12.90;;;;;;;10.15;63.20;99920.31;5005688;28;20033;-39
2023/12/13 03:55:07;;;;;;;24.60;11.05;;;;;;;10.16;62.88;99906.22;5005215;28;20037;-40
2023/12/13 03:57:32;;;;;;;28.85;12.13;;;;;;;10.09;62.68;99909.38;5013315;28;20037;-39
2023/12/13 03:59:58;;;;;;;30.20;11.65;;;;;;;10.10;62.62;99911.91;5006099;28;20044;-41
2023/12/13 04:02:23;;;;;;;28.38;12.48;;;;;;;10.01;62.80;99908.13;5004009;28;20041;-42
2023/12/13 04:04:49;;;;;;;30.10;11.82;;;;;;;10.07;62.66;99897.19;4998873;28;20148;-42
2023/12/13 04:07:15;;;;;;;28.50;12.20;;;;;;;10.10;62.73;99901.41;5001328;28;20146;-41
2023/12/13 04:09:40;;;;;;;38.58;15.77;;;;;;;10.09;62.64;99901.50;5004260;28;20052;-40
2023/12/13 04:12:06;;;;;;;35.42;12.23;;;;;;;10.12;62.49;99899.50;5002380;28;20072;-39
2023/12/13 04:14:31;;;;;;;27.13;11.50;;;;;;;10.12;62.30;99888.16;5006658;28;20063;-39
2023/12/13 04:16:57;;;;;;;28.02;12.07;;;;;;;10.09;62.64;99890.97;5012704;28;20034;-38
2023/12/13 04:19:23;;;;;;;21.83;9.50;;;;;;;10.07;62.26;99881.41;5011154;28;20393;-42
2023/12/13 04:21:48;;;;;;;27.80;11.68;;;;;;;10.02;62.44;99880.91;5007807;28;20085;-39
2023/12/13 04:24:13;;;;;;;31.52;11.70;;;;;;;10.06;62.46;99876.28;5008458;28;20038;-39
2023/12/13 04:26:39;;;;;;;28.45;11.10;;;;;;;10.07;62.30;99867.44;5006077;28;20489;-41
2023/12/13 04:29:05;;;;;;;31.70;12.70;;;;;;;10.03;62.35;99863.34;5010881;28;20026;-41
2023/12/13 04:31:30;;;;;;;29.10;13.68;;;;;;;9.99;62.82;99877.63;5012068;28;20045;-39
2023/12/13 04:33:56;;;;;;;21.88;10.82;;;;;;;10.03;62.69;99876.47;5005738;28;20113;-40
2023/12/13 04:36:22;;;;;;;35.63;16.48;;;;;;;9.95;62.58;99881.44;5010613;28;20022;-40
2023/12/13 04:38:48;;;;;;;29.58;12.32;;;;;;;9.99;62.86;99889.00;5009502;28;20045;-41
2023/12/13 04:41:13;;;;;;;29.13;13.48;;;;;;;10.03;62.81;99877.34;5007471;28;20038;-40
2023/12/13 04:43:39;;;;;;;35.03;12.88;;;;;;;9.89;62.97;99880.06;5011848;28;20033;-38
2023/12/13 04:46:05;;;;;;;28.95;13.02;;;;;;;9.93;62.99;99871.00;5003915;28;20026;-40
2023/12/13 04:48:30;;;;;;;29.48;12.30;;;;;;;9.91;63.23;99871.13;5015264;28;20388;-41
2023/12/13 04:50:57;;;;;;;28.15;13.00;;;;;;;10.00;63.26;99877.53;5005062;28;20396;-41
2023/12/13 04:53:22;;;;;;;29.80;12.43;;;;;;;10.05;62.89;99870.19;5011020;28;20083;-40
2023/12/13 04:55:48;;;;;;;27.85;12.55;;;;;;;10.07;62.66;99867.44;5003336;28;20120;-40
2023/12/13 04:58:14;;;;;;;26.92;11.82;;;;;;;10.07;62.80;99863.00;4997907;28;20037;-39
2023/12/13 05:00:39;;;;;;;29.67;13.68;;;;;;;9.99;63.08;99872.38;5006885;28;20058;-39
2023/12/13 05:03:05;;;;;;;26.73;11.23;;;;;;;10.06;62.78;99869.22;4998352;28;20720;-40
2023/12/13 05:05:30;;;;;;;26.52;12.60;;;;;;;10.06;63.16;99869.22;5003243;28;20041;-42
2023/12/13 05:07:56;;;;;;;29.25;13.00;;;;;;;10.00;63.09;99864.41;5007976;28;20037;-41
2023/12/13 05:10:21;;;;;;;31.83;14.18;;;;;;;9.95;63.25;99863.88;5004051;28;20021;-39
2023/12/13 05:12:47;;;;;;;33.50;13.15;;;;;;;10.02;62.89;99862.50;5001543;28;20064;-40
2023/12/13 05:15:12;;;;;;;33.63;12.57;;;;;;;9.91;62.67;99851.88;4993095;28;20397;-40
2023/12/13 05:17:38;;;;;;;41.08;17.80;;;;;;;9.99;62.86;99853.97;5006051;28;20030;-39
2023/12/13 05:20:04;;;;;;;29.55;13.13;;;;;;;9.99;63.01;99852.19;5007975;28;20022;-40
2023/12/13 05:22:29;;;;;;;27.40;12.02;;;;;;;9.97;63.04;99853.28;5007634;28;20025;-40
2023/12/13 05:24:55;;;;;;;37.55;12.75;;;;;;;9.95;62.88;99850.72;5006908;28;20030;-40
2023/12/13 05:27:20;;;;;;;29.17;12.55;;;;;;;10.04;63.10;99855.38;5007490;28;20088;-39
2023/12/13 05:29:46;;;;;;;29.13;13.70;;;;;;;10.05;62.95;99846.53;5011385;28;20017;-39
2023/12/13 05:32:11;;;;;;;27.67;12.07;;;;;;;10.07;62.73;99847.25;4997751;28;20505;-42
2023/12/13 05:34:37;;;;;;;34.75;14.18;;;;;;;10.09;62.73;99843.66;5005336;28;20095;-40
2023/12/13 05:37:05;;;;;;;26.05;11.35;;;;;;;10.05;62.76;99843.91;5002305;28;20033;-40
2023/12/13 05:39:32;;;;;;;31.30;12.23;;;;;;;10.07;62.85;99849.88;5002248;28;20485;-41
2023/12/13 05:41:57;;;;;;;26.60;12.45;;;;;;;10.06;63.26;99848.19;5005650;28;20235;-40
2023/12/13 05:44:23;;;;;;;28.80;12.60;;;;;;;10.11;63.05;99850.50;5004874;28;20152;-40
2023/12/13 05:46:48;;;;;;;30.83;13.73;;;;;;;10.11;62.89;99847.88;5001070;28;20046;-41
2023/12/13 05:49:15;;;;;;;28.15;11.10;;;;;;;10.14;62.99;99844.19;4994518;28;20426;-40
2023/12/13 05:51:40;;;;;;;34.25;13.25;;;;;;;10.14;62.88;99846.81;5011777;28;20096;-40
2023/12/13 05:54:06;;;;;;;28.95;12.95;;;;;;;10.09;62.77;99851.56;5008555;28;20030;-43
2023/12/13 05:56:31;;;;;;;26.33;12.13;;;;;;;10.13;63.16;99853.88;5009414;28;20030;-39
2023/12/13 05:58:57;;;;;;;31.30;13.20;;;;;;;10.13;63.23;99855.66;5011567;28;20032;-39
2023/12/13 06:01:22;;;;;;;40.90;18.15;;;;;;;10.12;63.11;99856.59;5003455;28;20501;-39
2023/12/13 06:03:48;;;;;;;37.08;14.90;;;;;;;10.13;63.23;99853.88;5005015;28;20045;-39
2023/12/13 06:06:13;;;;;;;30.60;14.45;;;;;;;10.12;63.11;99861.84;5005209;28;20489;-40
2023/12/13 06:08:40;;;;;;;33.75;13.27;;;;;;;10.01;63.14;99871.34;5011033;28;20026;-41
2023/12/13 06:11:07;;;;;;;28.05;12.95;;;;;;;10.12;63.16;99856.59;5007364;28;20022;-39
2023/12/13 06:13:32;;;;;;;27.83;12.80;;;;;;;10.13;63.37;99859.13;5010052;28;20030;-43
2023/12/13 06:15:58;;;;;;;31.35;13.48;;;;;;;10.17;63.12;99859.75;5006246;28;20536;-40
2023/12/13 06:18:23;;;;;;;33.33;15.27;;;;;;;10.20;63.08;99859.53;5008190;28;20034;-41
2023/12/13 06:20:49;;;;;;;29.38;13.23;;;;;;;10.11;62.88;99849.66;5006179;28;20053;-38
2023/12/13 06:23:14;;;;;;;31.90;13.88;;;;;;;9.92;63.06;99858.81;5005848;28;20034;-39
2023/12/13 06:25:40;;;;;;;31.35;12.32;;;;;;;10.10;63.22;99858.50;5007388;28;20492;-40
2023/12/13 06:28:05;;;;;;;29.67;12.70;;;;;;;10.12;63.18;99861.84;5002604;28;20393;-40
2023/12/13 06:30:31;;;;;;;30.88;14.13;;;;;;;10.16;62.74;99858.06;5006713;28;20473;-42
2023/12/13 06:32:57;;;;;;;33.92;13.70;;;;;;;10.13;62.75;99866.16;5009219;28;20054;-39
2023/12/13 06:35:22;;;;;;;23.50;12.45;;;;;;;10.17;62.76;99865.00;5003545;28;20538;-40
2023/12/13 06:37:48;;;;;;;31.27;13.63;;;;;;;10.21;62.52;99858.56;5005414;28;20385;-39
2023/12/13 06:40:14;;;;;;;28.50;12.50;;;;;;;10.18;62.74;99864.06;5006391;28;20022;-39
2023/12/13 06:42:41;;;;;;;21.58;8.02;;;;;;;10.17;62.82;99859.75;5012869;28;20034;-41
2023/12/13 06:45:07;;;;;;;30.95;13.45;;;;;;;10.21;62.63;99863.81;5007502;28;20021;-39
2023/12/13 06:47:32;;;;;;;31.42;13.68;;;;;;;10.21;62.54;99858.56;5009442;28;20502;-41
2023/12/13 06:49:58;;;;;;;30.38;13.43;;;;;;;10.13;62.60;99856.50;5008593;28;20021;-39
2023/12/13 06:52:23;;;;;;;30.50;13.15;;;;;;;10.11;62.83;99852.28;5005068;28;20033;-39
2023/12/13 06:54:49;;;;;;;28.52;13.52;;;;;;;10.09;62.91;99838.41;5000310;28;20508;-40
2023/12/13 06:57:16;;;;;;;40.10;15.40;;;;;;;9.99;62.91;99844.31;5000558;28;20038;-40
2023/12/13 06:59:42;;;;;;;33.70;14.13;;;;;;;10.03;62.97;99848.44;5010003;28;20061;-40
2023/12/13 07:02:07;;;;;;;27.98;13.30;;;;;;;10.06;63.01;99855.25;5005360;28;20060;-39
2023/12/13 07:04:33;;;;;;;36.45;15.75;;;;;;;10.06;63.05;99852.63;5006798;28;20041;-40
2023/12/13 07:07:01;;;;;;;17.38;8.77;;;;;;;10.11;63.05;99858.41;5002271;28;20053;-38
2023/12/13 07:09:27;;;;;;;32.50;14.02;;;;;;;10.10;62.84;99858.50;5005824;28;20037;-39
2023/12/13 07:11:52;;;;;;;30.45;12.85;;;;;;;10.11;62.64;99858.41;5002179;28;20021;-39
2023/12/13 07:14:17;;;;;;;17.10;8.45;;;;;;;10.15;62.91;99861.66;4999575;28;20375;-40
2023/12/13 07:16:43;;;;;;;32.45;14.07;;;;;;;10.20;62.90;99854.28;5006012;28;20045;-39
2023/12/13 07:19:09;;;;;;;36.22;16.80;;;;;;;9.97;63.32;99854.09;5004945;28;20105;-43
2023/12/13 07:21:35;;;;;;;44.80;18.60;;;;;;;10.05;63.22;99861.44;5010311;28;20033;-40
2023/12/13 07:24:01;;;;;;;42.33;16.40;;;;;;;10.10;63.43;99861.13;5008071;28;20029;-40
2023/12/13 07:26:26;;;;;;;30.42;14.35;;;;;;;10.11;63.19;99873.31;5008052;28;20030;-40
2023/12/13 07:28:52;;;;;;;33.97;15.57;;;;;;;10.17;62.92;99872.91;5004135;28;20033;-39
2023/12/13 07:31:18;;;;;;;35.75;14.45;;;;;;;10.09;62.85;99880.47;5005467;28;20034;-39
2023/12/13 07:33:43;;;;;;;29.30;13.80;;;;;;;10.14;63.28;99873.09;5010546;28;20075;-41
2023/12/13 07:36:12;;;;;;;31.88;15.25;;;;;;;10.11;63.28;99875.94;5006598;28;20033;-40
2023/12/13 07:38:38;;;;;;;29.42;13.07;;;;;;;10.16;63.01;99868.59;5009288;28;20692;-39
2023/12/13 07:41:04;;;;;;;32.05;14.40;;;;;;;10.19;62.69;99871.00;5010730;28;20040;-40
2023/12/13 07:43:29;;;;;;;31.15;13.20;;;;;;;10.22;62.62;99878.66;5007844;28;20042;-40
2023/12/13 07:45:55;;;;;;;33.95;14.43;;;;;;;10.16;62.76;99874.66;5004871;28;20401;-40
2023/12/13 07:48:24;;;;;;;28.55;13.32;;;;;;;10.21;62.62;99871.72;5008108;28;20039;-39
2023/12/13 07:50:51;;;;;;;33.80;14.20;;;;;;;10.21;62.71;99880.47;5009842;28;20036;-40
2023/12/13 07:53:16;;;;;;;32.75;14.60;;;;;;;10.17;62.70;99883.41;5006267;28;20113;-40
2023/12/13 07:55:42;;;;;;;31.27;13.15;;;;;;;10.19;62.91;99871.00;5009281;28;20158;-40
2023/12/13 07:58:08;;;;;;;32.33;13.23;;;;;;;10.21;62.86;99875.19;5013596;28;20084;-40
2023/12/13 08:00:33;;;;;;;34.25;13.80;;;;;;;10.25;62.54;99873.19;5010042;28;20481;-39
2023/12/13 08:02:59;;;;;;;29.33;13.88;;;;;;;10.26;62.55;99880.13;5005336;28;20040;-40
2023/12/13 08:05:24;;;;;;;37.58;17.75;;;;;;;10.27;62.44;99887.06;5003567;28;20112;-40
2023/12/13 08:07:50;;;;;;;36.50;15.55;;;;;;;10.15;62.05;99882.69;5010617;28;20052;-40
2023/12/13 08:10:15;;;;;;;30.63;14.65;;;;;;;10.20;62.35;99881.41;5012590;28;20088;-40
2023/12/13 08:12:42;;;;;;;32.20;14.73;;;;;;;10.26;62.29;99888.03;5011053;28;20036;-40
2023/12/13 08:15:11;;;;;;;34.38;14.02;;;;;;;10.26;62.34;99880.13;5009074;28;20061;-41
2023/12/13 08:17:37;;;;;;;35.22;14.95;;;;;;;10.24;62.33;99882.03;5009827;28;20113;-40
2023/12/13 08:20:04;;;;;;;32.78;13.85;;;;;;;10.28;62.13;99882.66;5008630;28;20117;-40
2023/12/13 08:22:29;;;;;;;36.28;13.65;;;;;;;10.23;62.24;99872.44;5007734;28;20045;-40
2023/12/13 08:24:55;;;;;;;40.22;18.15;;;;;;;10.28;62.24;99877.41;5013315;28;20029;-40
2023/12/13 08:27:20;;;;;;;38.10;16.60;;;;;;;10.21;62.16;99876.97;5009419;28;20077;-39
2023/12/13 08:29:46;;;;;;;39.35;18.35;;;;;;;10.15;62.31;99872.16;5012533;28;20034;-39
2023/12/13 08:32:11;;;;;;;33.88;15.20;;;;;;;10.15;62.42;99867.72;5010280;28;20029;-40
2023/12/13 08:34:37;;;;;;;31.65;13.43;;;;;;;10.07;62.38;99876.16;5005159;28;20026;-40
2023/12/13 08:37:02;;;;;;;36.25;14.15;;;;;;;10.17;62.25;99880.78;5006762;28;20033;-39
2023/12/13 08:39:28;;;;;;;30.15;13.48;;;;;;;10.18;62.35;99882.47;5011811;28;20041;-39
2023/12/13 08:41:53;;;;;;;30.27;13.23;;;;;;;10.16;62.54;99879.09;5011745;28;20025;-40
2023/12/13 08:44:19;;;;;;;31.83;13.73;;;;;;;10.19;62.79;99878.91;5006333;28;20052;-40
2023/12/13 08:46:45;;;;;;;34.45;12.43;;;;;;;10.13;62.75;99880.16;5001721;28;20542;-41
2023/12/13 08:49:11;;;;;;;28.27;12.93;;;;;;;10.21;62.70;99887.50;5019730;28;20724;-40
2023/12/13 08:51:37;;;;;;;34.00;15.45;;;;;;;10.10;62.73;99885.63;5011848;28;20722;-41
2023/12/13 08:54:03;;;;;;;33.70;14.65;;;;;;;10.10;62.98;99888.25;5006351;28;20081;-39
2023/12/13 08:56:29;;;;;;;33.45;13.75;;;;;;;10.17;62.86;99897.38;5008638;28;20038;-40
2023/12/13 08:58:54;;;;;;;37.35;13.65;;;;;;;9.99;62.71;99889.00;5011925;28;20036;-39
2023/12/13 09:01:20;;;;;;;36.78;14.77;;;;;;;10.13;62.69;99889.81;5015644;28;20053;-40
2023/12/13 09:03:46;;;;;;;31.23;13.95;;;;;;;10.10;62.86;99887.41;5002930;28;20478;-40
2023/12/13 09:06:14;;;;;;;16.33;8.32;;;;;;;10.12;62.97;99888.16;5006617;28;20030;-40
2023/12/13 09:08:40;;;;;;;40.22;16.63;;;;;;;10.15;62.82;99882.69;5006656;28;20694;-39
2023/12/13 09:11:05;;;;;;;33.80;15.40;;;;;;;10.06;62.76;99890.25;5013190;28;20109;-40
2023/12/13 09:13:32;;;;;;;19.75;8.05;;;;;;;10.16;62.62;99887.00;5007980;28;20197;-40
2023/12/13 09:15:58;;;;;;;26.13;12.43;;;;;;;10.15;62.56;99893.19;5005925;28;20041;-40
2023/12/13 09:18:23;;;;;;;34.15;12.98;;;;;;;10.02;62.83;99887.94;5011683;28;20021;-40
2023/12/13 09:20:49;;;;;;;27.65;12.48;;;;;;;10.10;62.62;99884.78;5013862;28;20030;-40
2023/12/13 09:23:21;;;;;;;30.30;11.40;;;;;;;10.18;62.61;99877.22;5010791;28;20539;-40
2023/12/13 09:25:47;;;;;;;24.35;11.10;;;;;;;10.13;62.50;99879.31;5014702;28;20030;-41
2023/12/13 09:28:12;;;;;;;19.30;8.85;;;;;;;10.09;62.41;99883.09;5009047;28;20084;-40
2023/12/13 09:30:38;;;;;;;30.70;14.00;;;;;;;10.05;62.41;99883.34;5006282;28;20065;-41
2023/12/13 09:33:03;;;;;;;27.23;12.88;;;;;;;9.91;62.83;99881.63;5011164;28;20019;-40
2023/12/13 09:35:29;;;;;;;27.27;11.50;;;;;;;9.97;62.77;99877.75;5011238;28;20034;-40
2023/12/13 09:37:54;;;;;;;23.27;10.65;;;;;;;9.90;62.71;99874.69;5013897;28;20034;-39
2023/12/13 09:40:20;;;;;;;28.05;11.65;;;;;;;9.98;62.78;99876.81;5007494;28;20026;-39
2023/12/13 09:42:46;;;;;;;31.40;10.77;;;;;;;9.97;63.10;99880.38;5008023;28;20030;-39
2023/12/13 09:45:21;;;;;;;24.15;11.60;;;;;;;10.02;62.53;99880.91;5009497;28;20079;-40
2023/12/13 09:47:49;;;;;;;24.15;10.68;;;;;;;10.04;62.53;99883.41;5007986;28;20025;-39
2023/12/13 09:50:15;;;;;;;22.92;11.73;;;;;;;9.94;62.72;99882.38;5007377;28;20021;-39
2023/12/13 09:52:42;;;;;;;24.23;11.25;;;;;;;9.88;62.62;99876.59;5011079;28;20025;-40
2023/12/13 09:55:08;;;;;;;25.25;10.57;;;;;;;9.91;62.69;99884.28;5012192;28;20054;-40
2023/12/13 09:57:34;;;;;;;25.70;10.75;;;;;;;9.97;62.52;99874.28;5016184;28;20057;-39
2023/12/13 10:00:00;;;;;;;24.25;11.63;;;;;;;9.89;62.70;99874.81;5009779;28;20462;-41
2023/12/13 10:02:26;;;;;;;24.88;10.20;;;;;;;9.86;62.71;99867.16;5001204;28;20038;-41
2023/12/13 10:04:52;;;;;;;25.38;10.88;;;;;;;9.83;62.91;99859.47;5003494;28;20036;-40
2023/12/13 10:07:18;;;;;;;29.40;11.57;;;;;;;9.82;63.03;99863.91;5005679;28;20159;-40
2023/12/13 10:09:44;;;;;;;15.48;7.78;;;;;;;9.84;62.97;99869.03;5003442;28;20473;-41
2023/12/13 10:12:12;;;;;;;22.45;9.48;;;;;;;9.76;63.25;99862.50;5005126;28;20025;-41
2023/12/13 10:14:38;;;;;;;29.38;10.32;;;;;;;9.83;62.79;99862.91;5007227;28;20129;-40
2023/12/13 10:17:04;;;;;;;24.65;9.07;;;;;;;9.81;62.94;99863.97;5003032;28;20045;-40
2023/12/13 10:19:31;;;;;;;16.55;6.97;;;;;;;9.83;62.96;99867.34;5004887;28;20065;-39
2023/12/13 10:21:56;;;;;;;19.85;8.68;;;;;;;9.89;63.11;99874.81;5010946;28;20034;-41
2023/12/13 10:24:23;;;;;;;22.13;8.85;;;;;;;9.94;62.87;99870.06;5005818;28;20029;-40
2023/12/13 10:26:50;;;;;;;25.65;11.63;;;;;;;9.94;63.22;99870.06;5010425;28;20125;-39
2023/12/13 10:29:18;;;;;;;31.60;13.82;;;;;;;9.95;63.29;99863.88;5003154;28;20085;-40
2023/12/13 10:31:47;;;;;;;27.00;12.02;;;;;;;9.93;63.60;99868.38;5004512;28;20041;-40
2023/12/13 10:34:12;;;;;;;27.73;9.73;;;;;;;9.93;63.66;99868.38;5000824;28;20038;-39
2023/12/13 10:36:38;;;;;;;25.35;9.07;;;;;;;10.02;63.19;99854.63;5002636;28;20040;-41
2023/12/13 10:39:07;;;;;;;20.45;8.50;;;;;;;10.13;63.01;99856.50;5006554;28;20443;-39
2023/12/13 10:41:33;;;;;;;23.88;9.30;;;;;;;10.14;62.92;99859.97;5005665;28;20033;-40
2023/12/13 10:44:02;;;;;;;26.17;9.65;;;;;;;10.15;62.98;99856.38;5005984;28;20049;-39
2023/12/13 10:46:34;;;;;;;22.83;8.40;;;;;;;10.22;62.78;99857.63;5010104;28;20139;-40
2023/12/13 10:49:03;;;;;;;17.92;8.63;;;;;;;10.21;63.00;99862.06;5006937;28;20029;-41
2023/12/13 10:51:29;;;;;;;20.40;9.50;;;;;;;10.23;63.03;99854.06;5002572;28;20104;-41
2023/12/13 10:53:56;;;;;;;21.75;9.68;;;;;;;10.21;63.25;99855.94;5006907;28;20034;-42
2023/12/13 10:56:21;;;;;;;16.48;5.82;;;;;;;10.14;63.26;99859.97;5005561;28;20040;-41
2023/12/13 10:58:47;;;;;;;21.33;8.13;;;;;;;10.21;63.10;99850.69;5008865;28;20113;-41
2023/12/13 11:01:14;;;;;;;16.98;9.73;;;;;;;10.17;62.87;99854.50;5009444;28;20088;-40
2023/12/13 11:03:48;;;;;;;19.30;8.27;;;;;;;10.24;62.75;99850.47;5006822;28;20034;-46
2023/12/13 11:06:16;;;;;;;20.27;8.15;;;;;;;10.28;62.68;99849.31;5006111;28;20124;-41
2023/12/13 11:08:43;;;;;;;23.60;9.38;;;;;;;10.26;62.63;99848.56;5001470;28;20101;-41
2023/12/13 11:11:13;;;;;;;22.23;8.65;;;;;;;10.34;62.45;99851.53;5002397;28;20021;-42
2023/12/13 11:13:48;;;;;;;22.05;10.55;;;;;;;10.43;62.39;99851.84;5002103;28;20041;-41
2023/12/13 11:16:25;;;;;;;21.00;9.63;;;;;;;10.36;62.60;99846.16;5003857;28;20034;-40